sensor_id;sensor_type;location;lat;lon;timestamp;P1;durP1;ratioP1;P2;durP2;ratioP2
35602;SDS011;21725;50.836;4.368;2023-07-20T09:03:27;5.63;;;2.50;;
35602;SDS011;21725;50.836;4.368;2023-07-20T09:06:59;6.57;;;2.20;;
35602;SDS011;21725;50.836;4.368;2023-07-20T09:10:23;6.05;;;2.33;;
35602;SDS011;21725;50.836;4.368;2023-07-20T09:13:47;3.22;;;2.08;;
35602;SDS011;21725;50.836;4.368;2023-07-20T09:17:43;6.95;;;2.35;;
35602;SDS011;21725;50.836;4.368;2023-07-20T09:21:34;5.72;;;2.72;;
35602;SDS011;21725;50.836;4.368;2023-07-20T09:25:13;4.30;;;2.20;;
35602;SDS011;21725;50.836;4.368;2023-07-20T09:28:55;2.85;;;1.90;;
35602;SDS011;21725;50.836;4.368;2023-07-20T09:32:19;4.10;;;1.77;;
35602;SDS011;21725;50.836;4.368;2023-07-20T09:35:49;3.67;;;2.00;;
35602;SDS011;21725;50.836;4.368;2023-07-20T09:39:01;6.88;;;2.28;;
35602;SDS011;21725;50.836;4.368;2023-07-20T09:46:08;2.35;;;1.90;;
35602;SDS011;21725;50.836;4.368;2023-07-20T09:49:20;3.17;;;2.03;;
35602;SDS011;21725;50.836;4.368;2023-07-20T09:52:40;2.60;;;1.75;;
35602;SDS011;21725;50.836;4.368;2023-07-20T09:59:46;6.30;;;2.42;;
35602;SDS011;21725;50.836;4.368;2023-07-20T10:03:28;4.10;;;2.00;;
35602;SDS011;21725;50.836;4.368;2023-07-20T10:10:25;6.72;;;2.42;;
35602;SDS011;21725;50.836;4.368;2023-07-20T10:18:10;6.05;;;2.67;;
35602;SDS011;21725;50.836;4.368;2023-07-20T10:21:37;3.73;;;2.20;;
35602;SDS011;21725;50.836;4.368;2023-07-20T10:24:47;4.50;;;2.03;;
35602;SDS011;21725;50.836;4.368;2023-07-20T10:28:14;4.43;;;1.70;;
35602;SDS011;21725;50.836;4.368;2023-07-20T10:31:31;7.97;;;3.38;;
35602;SDS011;21725;50.836;4.368;2023-07-20T10:35:17;5.65;;;2.03;;
35602;SDS011;21725;50.836;4.368;2023-07-20T10:38:52;4.40;;;1.70;;
35602;SDS011;21725;50.836;4.368;2023-07-20T10:42:13;3.78;;;1.90;;
35602;SDS011;21725;50.836;4.368;2023-07-20T10:45:54;4.38;;;1.83;;
35602;SDS011;21725;50.836;4.368;2023-07-20T10:49:18;5.97;;;2.28;;
35602;SDS011;21725;50.836;4.368;2023-07-20T11:08:14;4.78;;;2.65;;
35602;SDS011;21725;50.836;4.368;2023-07-20T11:11:57;18.33;;;11.10;;
35602;SDS011;21725;50.836;4.368;2023-07-20T11:19:21;13.73;;;8.30;;
35602;SDS011;21725;50.836;4.368;2023-07-20T11:22:38;21.58;;;12.98;;
35602;SDS011;21725;50.836;4.368;2023-07-20T11:26:11;9.52;;;5.10;;
35602;SDS011;21725;50.836;4.368;2023-07-20T11:37:33;19.67;;;12.65;;
35602;SDS011;21725;50.836;4.368;2023-07-20T11:41:15;9.63;;;5.18;;
35602;SDS011;21725;50.836;4.368;2023-07-20T11:44:54;5.07;;;3.22;;
35602;SDS011;21725;50.836;4.368;2023-07-20T11:52:28;14.15;;;7.63;;
35602;SDS011;21725;50.836;4.368;2023-07-20T12:07:07;7.05;;;4.57;;
35602;SDS011;21725;50.836;4.368;2023-07-20T12:10:25;6.13;;;3.22;;
35602;SDS011;21725;50.836;4.368;2023-07-20T12:17:20;4.70;;;2.70;;
35602;SDS011;21725;50.836;4.368;2023-07-20T12:20:36;6.38;;;2.80;;
35602;SDS011;21725;50.836;4.368;2023-07-20T12:23:58;5.93;;;3.55;;
35602;SDS011;21725;50.836;4.368;2023-07-20T12:27:14;6.85;;;3.45;;
35602;SDS011;21725;50.836;4.368;2023-07-20T12:30:45;5.53;;;3.10;;
35602;SDS011;21725;50.836;4.368;2023-07-20T12:34:22;3.85;;;2.60;;
35602;SDS011;21725;50.836;4.368;2023-07-20T12:37:36;4.70;;;3.22;;
35602;SDS011;21725;50.836;4.368;2023-07-20T12:51:54;9.95;;;3.88;;
35602;SDS011;21725;50.836;4.368;2023-07-20T12:55:24;6.82;;;2.72;;
35602;SDS011;21725;50.836;4.368;2023-07-20T13:05:42;4.47;;;2.95;;
35602;SDS011;21725;50.836;4.368;2023-07-20T13:09:10;3.40;;;2.75;;
35602;SDS011;21725;50.836;4.368;2023-07-20T13:16:03;4.15;;;2.53;;
35602;SDS011;21725;50.836;4.368;2023-07-20T13:23:04;7.65;;;3.20;;
35602;SDS011;21725;50.836;4.368;2023-07-20T13:26:16;7.38;;;4.18;;
35602;SDS011;21725;50.836;4.368;2023-07-20T13:29:39;4.15;;;2.50;;
35602;SDS011;21725;50.836;4.368;2023-07-20T13:32:50;7.82;;;3.33;;
35602;SDS011;21725;50.836;4.368;2023-07-20T13:36:04;5.10;;;2.80;;
35602;SDS011;21725;50.836;4.368;2023-07-20T13:39:30;3.83;;;2.63;;
35602;SDS011;21725;50.836;4.368;2023-07-20T13:50:31;5.90;;;2.83;;
35602;SDS011;21725;50.836;4.368;2023-07-20T14:18:14;3.97;;;2.50;;
35602;SDS011;21725;50.836;4.368;2023-07-20T14:25:22;6.68;;;2.20;;
35602;SDS011;21725;50.836;4.368;2023-07-20T14:28:47;6.60;;;3.28;;
35602;SDS011;21725;50.836;4.368;2023-07-20T14:32:09;6.15;;;3.40;;
35602;SDS011;21725;50.836;4.368;2023-07-20T14:46:24;4.68;;;2.40;;
35602;SDS011;21725;50.836;4.368;2023-07-20T14:49:36;5.93;;;2.45;;
35602;SDS011;21725;50.836;4.368;2023-07-20T14:52:58;4.38;;;2.40;;
35602;SDS011;21725;50.836;4.368;2023-07-20T14:56:47;3.95;;;2.30;;
35602;SDS011;21725;50.836;4.368;2023-07-20T15:07:18;4.80;;;2.40;;
35602;SDS011;21725;50.836;4.368;2023-07-20T15:10:23;3.15;;;2.28;;
35602;SDS011;21725;50.836;4.368;2023-07-20T15:14:03;12.90;;;2.92;;
35602;SDS011;21725;50.836;4.368;2023-07-20T15:17:28;3.95;;;2.00;;
35602;SDS011;21725;50.836;4.368;2023-07-20T15:20:41;5.10;;;2.60;;
35602;SDS011;21725;50.836;4.368;2023-07-20T15:24:19;4.47;;;2.28;;
35602;SDS011;21725;50.836;4.368;2023-07-20T15:35:16;3.58;;;2.15;;
35602;SDS011;21725;50.836;4.368;2023-07-20T15:38:39;5.35;;;2.80;;
35602;SDS011;21725;50.836;4.368;2023-07-20T15:41:55;4.05;;;2.50;;
35602;SDS011;21725;50.836;4.368;2023-07-20T15:49:28;5.78;;;2.45;;
35602;SDS011;21725;50.836;4.368;2023-07-20T15:56:58;7.13;;;3.00;;
35602;SDS011;21725;50.836;4.368;2023-07-20T16:00:08;8.60;;;4.15;;
35602;SDS011;21725;50.836;4.368;2023-07-20T16:03:24;6.95;;;3.78;;
35602;SDS011;21725;50.836;4.368;2023-07-20T16:06:33;9.10;;;5.38;;
35602;SDS011;21725;50.836;4.368;2023-07-20T16:13:35;7.65;;;4.85;;
35602;SDS011;21725;50.836;4.368;2023-07-20T16:20:55;10.77;;;6.53;;
35602;SDS011;21725;50.836;4.368;2023-07-20T16:24:17;8.48;;;4.38;;
35602;SDS011;21725;50.836;4.368;2023-07-20T16:31:29;5.60;;;3.70;;
35602;SDS011;21725;50.836;4.368;2023-07-20T16:38:30;6.47;;;3.67;;
35602;SDS011;21725;50.836;4.368;2023-07-20T16:41:55;7.15;;;4.53;;
35602;SDS011;21725;50.836;4.368;2023-07-20T16:45:32;6.28;;;4.45;;
35602;SDS011;21725;50.836;4.368;2023-07-20T16:52:46;5.25;;;3.85;;
35602;SDS011;21725;50.836;4.368;2023-07-20T16:56:07;6.82;;;5.15;;
35602;SDS011;21725;50.836;4.368;2023-07-20T17:03:14;10.52;;;4.65;;
35602;SDS011;21725;50.836;4.368;2023-07-20T17:13:40;6.68;;;4.00;;
35602;SDS011;21725;50.836;4.368;2023-07-20T17:21:00;6.80;;;4.78;;
35602;SDS011;21725;50.836;4.368;2023-07-20T17:27:27;5.55;;;4.28;;
35602;SDS011;21725;50.836;4.368;2023-07-20T17:30:59;8.45;;;5.35;;
35602;SDS011;21725;50.836;4.368;2023-07-20T17:34:19;6.68;;;4.82;;
35602;SDS011;21725;50.836;4.368;2023-07-20T17:37:51;11.27;;;5.63;;
35602;SDS011;21725;50.836;4.368;2023-07-20T17:48:08;8.50;;;5.32;;
35602;SDS011;21725;50.836;4.368;2023-07-20T17:58:37;9.45;;;5.85;;
35602;SDS011;21725;50.836;4.368;2023-07-20T18:01:40;7.25;;;5.18;;
35602;SDS011;21725;50.836;4.368;2023-07-20T18:05:04;8.70;;;5.60;;
35602;SDS011;21725;50.836;4.368;2023-07-20T18:08:05;8.68;;;6.75;;
35602;SDS011;21725;50.836;4.368;2023-07-20T18:11:06;6.80;;;5.47;;
35602;SDS011;21725;50.836;4.368;2023-07-20T18:14:09;6.55;;;4.65;;
35602;SDS011;21725;50.836;4.368;2023-07-20T18:17:10;8.45;;;5.57;;
35602;SDS011;21725;50.836;4.368;2023-07-20T18:20:10;7.32;;;4.30;;
35602;SDS011;21725;50.836;4.368;2023-07-20T18:23:11;8.43;;;4.78;;
35602;SDS011;21725;50.836;4.368;2023-07-20T18:26:12;6.45;;;4.85;;
35602;SDS011;21725;50.836;4.368;2023-07-20T18:29:13;8.35;;;5.57;;
35602;SDS011;21725;50.836;4.368;2023-07-20T18:32:14;7.80;;;4.93;;
35602;SDS011;21725;50.836;4.368;2023-07-20T18:35:15;8.57;;;5.57;;
35602;SDS011;21725;50.836;4.368;2023-07-20T18:41:42;5.15;;;3.78;;
35602;SDS011;21725;50.836;4.368;2023-07-20T18:44:58;9.93;;;6.50;;
35602;SDS011;21725;50.836;4.368;2023-07-20T18:48:48;5.93;;;4.07;;
35602;SDS011;21725;50.836;4.368;2023-07-20T18:52:11;5.60;;;3.97;;
35602;SDS011;21725;50.836;4.368;2023-07-20T18:55:24;6.40;;;4.90;;
35602;SDS011;21725;50.836;4.368;2023-07-20T19:27:12;12.27;;;6.38;;
35602;SDS011;21725;50.836;4.368;2023-07-20T19:30:54;5.95;;;4.50;;
35602;SDS011;21725;50.836;4.368;2023-07-20T19:34:08;7.65;;;5.15;;
35602;SDS011;21725;50.836;4.368;2023-07-20T19:37:18;6.75;;;5.18;;
35602;SDS011;21725;50.836;4.368;2023-07-20T19:40:26;7.43;;;4.95;;
35602;SDS011;21725;50.836;4.368;2023-07-20T19:44:22;7.70;;;5.50;;
35602;SDS011;21725;50.836;4.368;2023-07-20T19:47:55;7.80;;;5.35;;
35602;SDS011;21725;50.836;4.368;2023-07-20T19:51:09;9.63;;;5.60;;
35602;SDS011;21725;50.836;4.368;2023-07-20T19:58:01;8.55;;;5.82;;
35602;SDS011;21725;50.836;4.368;2023-07-20T20:01:24;8.77;;;6.15;;
35602;SDS011;21725;50.836;4.368;2023-07-20T20:04:50;10.57;;;7.35;;
35602;SDS011;21725;50.836;4.368;2023-07-20T20:08:15;10.23;;;6.85;;
35602;SDS011;21725;50.836;4.368;2023-07-20T20:11:35;10.15;;;7.32;;
35602;SDS011;21725;50.836;4.368;2023-07-20T20:14:55;10.85;;;7.60;;
35602;SDS011;21725;50.836;4.368;2023-07-20T20:21:54;10.02;;;7.53;;
35602;SDS011;21725;50.836;4.368;2023-07-20T20:25:03;13.00;;;7.90;;
35602;SDS011;21725;50.836;4.368;2023-07-20T20:32:16;11.65;;;7.10;;
35602;SDS011;21725;50.836;4.368;2023-07-20T20:35:27;10.85;;;6.90;;
35602;SDS011;21725;50.836;4.368;2023-07-20T20:39:12;8.82;;;6.78;;
35602;SDS011;21725;50.836;4.368;2023-07-20T20:42:21;8.80;;;7.20;;
35602;SDS011;21725;50.836;4.368;2023-07-20T20:49:23;12.18;;;7.57;;
35602;SDS011;21725;50.836;4.368;2023-07-20T21:00:04;11.10;;;7.28;;
35602;SDS011;21725;50.836;4.368;2023-07-20T21:03:30;12.45;;;7.43;;
35602;SDS011;21725;50.836;4.368;2023-07-20T21:06:45;8.50;;;6.38;;
35602;SDS011;21725;50.836;4.368;2023-07-20T21:10:11;8.63;;;7.70;;
35602;SDS011;21725;50.836;4.368;2023-07-20T21:13:14;11.68;;;7.40;;
35602;SDS011;21725;50.836;4.368;2023-07-20T21:16:20;12.68;;;7.05;;
35602;SDS011;21725;50.836;4.368;2023-07-20T21:23:31;9.27;;;7.00;;
35602;SDS011;21725;50.836;4.368;2023-07-20T21:38:14;9.45;;;7.10;;
35602;SDS011;21725;50.836;4.368;2023-07-20T21:45:40;11.55;;;7.63;;
35602;SDS011;21725;50.836;4.368;2023-07-20T21:49:09;7.30;;;5.88;;
35602;SDS011;21725;50.836;4.368;2023-07-20T21:55:43;9.23;;;6.18;;
35602;SDS011;21725;50.836;4.368;2023-07-20T21:58:55;8.20;;;6.50;;
35602;SDS011;21725;50.836;4.368;2023-07-20T22:05:16;9.85;;;7.53;;
35602;SDS011;21725;50.836;4.368;2023-07-20T22:11:56;11.30;;;7.75;;
35602;SDS011;21725;50.836;4.368;2023-07-20T22:15:02;9.70;;;8.30;;
35602;SDS011;21725;50.836;4.368;2023-07-20T22:29:13;14.38;;;8.98;;
35602;SDS011;21725;50.836;4.368;2023-07-20T22:32:36;9.80;;;7.10;;
35602;SDS011;21725;50.836;4.368;2023-07-20T22:36:02;8.75;;;7.25;;
35602;SDS011;21725;50.836;4.368;2023-07-20T22:43:32;8.70;;;7.70;;
35602;SDS011;21725;50.836;4.368;2023-07-20T22:46:37;9.00;;;7.30;;
35602;SDS011;21725;50.836;4.368;2023-07-20T23:01:17;8.85;;;7.60;;
35602;SDS011;21725;50.836;4.368;2023-07-20T23:05:06;9.73;;;8.27;;
35602;SDS011;21725;50.836;4.368;2023-07-20T23:09:05;8.70;;;7.80;;
35602;SDS011;21725;50.836;4.368;2023-07-20T23:12:46;9.57;;;8.50;;
35602;SDS011;21725;50.836;4.368;2023-07-20T23:16:00;10.55;;;7.65;;
35602;SDS011;21725;50.836;4.368;2023-07-20T23:19:38;10.20;;;8.75;;
35602;SDS011;21725;50.836;4.368;2023-07-20T23:22:55;9.20;;;7.90;;
35602;SDS011;21725;50.836;4.368;2023-07-20T23:29:40;10.93;;;7.50;;
35602;SDS011;21725;50.836;4.368;2023-07-20T23:32:52;8.82;;;7.35;;
35602;SDS011;21725;50.836;4.368;2023-07-20T23:36:47;10.25;;;6.95;;
35602;SDS011;21725;50.836;4.368;2023-07-20T23:40:31;8.35;;;7.47;;
35602;SDS011;21725;50.836;4.368;2023-07-20T23:43:52;8.18;;;7.22;;
